createdAt,value
2019-05-22T00:00:39.290Z,35.60
2019-05-22T00:03:08.690Z,40.13
2019-05-22T00:05:38.171Z,45.60
2019-05-22T00:08:09.113Z,40.10
2019-05-22T00:10:40.832Z,35.30
2019-05-22T00:13:13.971Z,39.13
2019-05-22T00:15:44.957Z,50.83
2019-05-22T00:18:15.412Z,44.43
2019-05-22T00:20:45.310Z,48.37
2019-05-22T00:23:15.405Z,42.70
2019-05-22T00:25:47.709Z,50.40
2019-05-22T00:28:18.033Z,37.13
2019-05-22T00:30:49.224Z,50.20
2019-05-22T00:33:18.155Z,47.10
2019-05-22T00:35:47.980Z,48.13
2019-05-22T00:38:18.538Z,49.40
2019-05-22T00:40:55.438Z,49.27
2019-05-22T00:43:39.422Z,42.50
2019-05-22T00:46:09.733Z,45.87
2019-05-22T00:48:41.580Z,36.30
2019-05-22T00:51:29.630Z,38.87
2019-05-22T00:54:10.453Z,42.63
2019-05-22T00:56:46.232Z,37.17
2019-05-22T00:59:24.689Z,41.90
2019-05-22T01:01:55.663Z,49.57
2019-05-22T01:04:31.930Z,40.70
2019-05-22T01:07:04.563Z,45.80
2019-05-22T01:09:41.707Z,49.90
2019-05-22T01:12:17.364Z,45.13
2019-05-22T01:14:46.920Z,54.23
2019-05-22T01:17:17.510Z,44.97
2019-05-22T01:19:48.538Z,52.47
2019-05-22T01:22:19.710Z,42.83
2019-05-22T01:24:53.735Z,50.43
2019-05-22T01:27:26.003Z,57.80
2019-05-22T01:29:56.939Z,53.13
2019-05-22T01:32:43.056Z,53.37
2019-05-22T01:35:13.679Z,58.60
2019-05-22T01:37:45.151Z,58.30
2019-05-22T01:40:22.558Z,47.20
2019-05-22T01:42:53.645Z,66.67
2019-05-22T01:45:24.838Z,47.37
2019-05-22T01:48:05.331Z,41.70
2019-05-22T01:50:43.743Z,48.70
2019-05-22T01:53:15.800Z,51.70
2019-05-22T01:55:47.900Z,52.53
2019-05-22T01:58:20.094Z,52.60
2019-05-22T02:00:52.555Z,55.53
2019-05-22T02:03:25.187Z,50.30
2019-05-22T02:05:55.042Z,54.70
2019-05-22T02:08:24.961Z,50.40
2019-05-22T02:10:58.092Z,52.50
2019-05-22T02:13:33.639Z,48.90
2019-05-22T02:16:02.896Z,59.43
2019-05-22T02:18:34.667Z,49.93
2019-05-22T02:21:04.469Z,53.93
2019-05-22T02:23:34.198Z,48.10
2019-05-22T02:26:04.717Z,51.63
2019-05-22T02:28:33.959Z,59.13
2019-05-22T02:31:04.409Z,52.83
2019-05-22T02:33:33.188Z,40.40
2019-05-22T02:36:02.798Z,43.30
2019-05-22T02:38:31.520Z,48.17
2019-05-22T02:41:01.296Z,46.57
2019-05-22T02:43:30.138Z,49.50
2019-05-22T02:46:00.223Z,39.10
2019-05-22T02:48:30.668Z,38.53
2019-05-22T02:50:59.657Z,52.70
2019-05-22T02:53:29.629Z,50.97
2019-05-22T02:55:58.535Z,39.00
2019-05-22T02:58:28.784Z,39.53
2019-05-22T03:01:01.458Z,39.80
2019-05-22T03:03:32.164Z,39.20
2019-05-22T03:06:02.607Z,41.97
2019-05-22T03:09:02.751Z,39.63
2019-05-22T03:11:37.187Z,30.77
2019-05-22T03:14:07.464Z,37.43
2019-05-22T03:16:51.686Z,35.33
2019-05-22T03:19:30.960Z,33.43
2019-05-22T03:22:00.955Z,32.20
2019-05-22T03:24:30.716Z,34.17
2019-05-22T03:26:59.463Z,33.37
2019-05-22T03:29:40.427Z,37.40
2019-05-22T03:32:10.030Z,33.30
2019-05-22T03:34:39.573Z,41.97
2019-05-22T03:37:10.449Z,31.30
2019-05-22T03:39:39.883Z,33.93
2019-05-22T03:42:09.004Z,32.90
2019-05-22T03:44:39.202Z,35.73
2019-05-22T03:47:09.361Z,34.50
2019-05-22T03:49:39.215Z,41.57
2019-05-22T03:52:09.557Z,39.00
2019-05-22T03:54:38.865Z,35.13
2019-05-22T03:57:09.484Z,34.80
2019-05-22T03:59:38.388Z,39.50
2019-05-22T04:02:07.373Z,35.97
2019-05-22T04:04:40.391Z,35.67
2019-05-22T04:07:14.044Z,47.23
2019-05-22T04:09:44.971Z,35.27
2019-05-22T04:12:15.462Z,42.33
2019-05-22T04:14:45.972Z,42.70
2019-05-22T04:17:16.605Z,31.23
2019-05-22T04:19:50.503Z,36.47
2019-05-22T04:22:17.656Z,37.23
2019-05-22T04:24:48.932Z,30.40
2019-05-22T04:27:18.679Z,36.93
2019-05-22T04:29:48.561Z,38.13
2019-05-22T04:32:23.769Z,48.63
2019-05-22T04:34:52.697Z,36.90
2019-05-22T04:37:22.488Z,36.07
2019-05-22T04:39:55.041Z,33.53
2019-05-22T04:42:24.990Z,29.50
2019-05-22T04:45:12.182Z,30.33
2019-05-22T04:47:41.335Z,32.57
2019-05-22T04:50:10.946Z,36.00
2019-05-22T04:52:41.700Z,37.53
2019-05-22T04:55:12.841Z,35.00
2019-05-22T04:57:41.984Z,31.10
2019-05-22T05:00:12.897Z,39.07
2019-05-22T05:02:41.658Z,42.10
2019-05-22T05:05:11.091Z,46.97
2019-05-22T05:07:41.798Z,58.03
2019-05-22T05:10:11.204Z,49.93
2019-05-22T05:12:42.274Z,68.77
2019-05-22T05:15:11.696Z,61.77
2019-05-22T05:17:40.659Z,59.80
2019-05-22T05:20:22.201Z,51.80
2019-05-22T05:22:43.917Z,71.57
2019-05-22T05:25:13.419Z,53.67
2019-05-22T05:27:42.491Z,59.40
2019-05-22T05:30:13.071Z,48.67
2019-05-22T05:32:43.279Z,62.53
2019-05-22T05:35:13.934Z,49.93
2019-05-22T05:37:43.156Z,48.30
2019-05-22T05:40:35.834Z,43.77
2019-05-22T05:43:06.891Z,43.60
2019-05-22T05:45:36.895Z,59.50
2019-05-22T05:48:08.616Z,67.30
2019-05-22T05:50:40.543Z,72.30
2019-05-22T05:53:19.134Z,45.03
2019-05-22T05:56:14.975Z,56.67
2019-05-22T05:58:45.039Z,74.90
2019-05-22T06:01:26.077Z,67.00
2019-05-22T06:03:56.027Z,63.93
2019-05-22T06:07:15.767Z,58.10
2019-05-22T06:09:46.191Z,58.97
2019-05-22T06:12:15.888Z,54.23
2019-05-22T06:14:45.551Z,44.93
2019-05-22T06:17:52.547Z,44.80
2019-05-22T06:20:22.887Z,43.97
2019-05-22T06:23:46.056Z,44.93
2019-05-22T06:26:40.740Z,54.57
2019-05-22T06:29:10.470Z,55.60
2019-05-22T06:32:17.403Z,47.87
2019-05-22T06:34:46.817Z,56.90
2019-05-22T06:37:30.577Z,58.90
2019-05-22T06:40:01.414Z,57.13
2019-05-22T06:42:30.277Z,64.00
2019-05-22T06:44:59.347Z,51.10
2019-05-22T06:47:28.610Z,63.83
2019-05-22T06:49:58.513Z,57.73
2019-05-22T06:52:27.344Z,72.87
2019-05-22T06:54:57.492Z,80.30
2019-05-22T06:57:34.992Z,78.90
2019-05-22T07:00:14.601Z,64.23
2019-05-22T07:02:41.654Z,42.90
2019-05-22T07:05:11.499Z,62.40
2019-05-22T07:07:41.161Z,53.40
2019-05-22T07:10:12.727Z,76.87
2019-05-22T07:12:43.566Z,63.23
2019-05-22T07:15:30.948Z,58.67
2019-05-22T07:18:01.376Z,64.07
2019-05-22T07:20:32.448Z,59.47
2019-05-22T07:23:03.667Z,71.10
2019-05-22T07:25:35.372Z,69.70
2019-05-22T07:28:05.438Z,73.43
2019-05-22T07:30:35.220Z,78.80
2019-05-22T07:33:04.557Z,67.97
2019-05-22T07:35:46.001Z,66.33
2019-05-22T07:38:04.250Z,70.90
2019-05-22T07:40:35.596Z,73.27
2019-05-22T07:43:05.317Z,63.70
2019-05-22T07:45:35.068Z,60.73
2019-05-22T07:48:07.539Z,65.20
2019-05-22T07:50:57.758Z,74.73
2019-05-22T07:53:27.753Z,68.97
2019-05-22T07:55:58.364Z,61.87
2019-05-22T07:58:29.482Z,66.67
2019-05-22T08:01:01.146Z,65.23
2019-05-22T08:03:33.109Z,67.47
2019-05-22T08:06:02.825Z,73.63
2019-05-22T08:08:35.061Z,76.10
2019-05-22T08:11:06.071Z,68.27
2019-05-22T08:13:35.944Z,79.40
2019-05-22T08:16:05.718Z,74.63
2019-05-22T08:18:37.288Z,79.00
2019-05-22T08:21:06.454Z,87.40
2019-05-22T08:23:36.075Z,81.10
2019-05-22T08:26:06.338Z,67.63
2019-05-22T08:28:36.126Z,75.97
2019-05-22T08:31:07.403Z,71.23
2019-05-22T08:33:38.513Z,68.37
2019-05-22T08:36:08.329Z,91.27
2019-05-22T08:38:37.984Z,74.00
2019-05-22T08:41:09.208Z,76.07
2019-05-22T08:44:03.390Z,92.20
2019-05-22T08:46:12.953Z,78.77
2019-05-22T08:48:48.156Z,81.70
2019-05-22T08:51:14.255Z,86.63
2019-05-22T08:53:48.412Z,73.63
2019-05-22T08:56:15.503Z,65.70
2019-05-22T08:58:45.009Z,62.57
2019-05-22T09:01:14.353Z,57.80
2019-05-22T09:03:43.931Z,49.20
2019-05-22T09:06:13.117Z,44.63
2019-05-22T09:08:41.910Z,44.70
2019-05-22T09:11:12.080Z,37.23
2019-05-22T09:13:41.198Z,43.37
2019-05-22T09:16:11.082Z,47.20
2019-05-22T09:18:39.990Z,43.33
2019-05-22T09:21:09.692Z,35.33
2019-05-22T09:23:38.861Z,42.83
2019-05-22T09:26:08.121Z,46.90
2019-05-22T09:28:37.443Z,39.33
2019-05-22T09:31:06.374Z,39.80
2019-05-22T09:33:36.580Z,40.30
2019-05-22T09:36:06.639Z,44.23
2019-05-22T09:38:35.724Z,44.73
2019-05-22T09:41:04.924Z,46.37
2019-05-22T09:43:34.197Z,48.90
2019-05-22T09:46:06.561Z,44.63
2019-05-22T09:48:36.740Z,47.50
2019-05-22T09:51:06.251Z,40.90
2019-05-22T09:53:35.770Z,38.47
2019-05-22T09:56:05.627Z,37.77
2019-05-22T09:58:34.623Z,33.77
2019-05-22T10:01:05.047Z,44.13
2019-05-22T10:03:34.856Z,53.73
2019-05-22T10:06:08.142Z,49.67
2019-05-22T10:08:37.350Z,40.40
2019-05-22T10:11:12.488Z,37.10
2019-05-22T10:13:41.330Z,39.47
2019-05-22T10:16:10.698Z,33.60
2019-05-22T10:18:39.904Z,43.20
2019-05-22T10:21:11.163Z,36.57
2019-05-22T10:23:40.962Z,38.17
2019-05-22T10:26:11.034Z,39.53
2019-05-22T10:28:41.094Z,51.03
2019-05-22T10:31:11.366Z,41.53
2019-05-22T10:33:41.747Z,34.37
2019-05-22T10:36:10.708Z,37.67
2019-05-22T10:38:39.899Z,49.83
2019-05-22T10:41:10.209Z,41.17
2019-05-22T10:43:39.511Z,51.07
2019-05-22T10:46:09.556Z,51.20
2019-05-22T10:48:40.515Z,35.73
2019-05-22T10:51:09.984Z,50.40
2019-05-22T10:53:39.278Z,62.03
2019-05-22T10:56:08.807Z,42.37
2019-05-22T10:58:38.142Z,49.57
2019-05-22T11:01:09.101Z,50.07
2019-05-22T11:03:38.448Z,48.43
2019-05-22T11:06:08.130Z,34.17
2019-05-22T11:08:37.492Z,45.67
2019-05-22T11:11:06.429Z,42.13
2019-05-22T11:13:35.852Z,45.20
2019-05-22T11:16:05.014Z,39.67
2019-05-22T11:18:35.115Z,40.47
2019-05-22T11:21:04.754Z,37.17
2019-05-22T11:23:50.062Z,31.83
2019-05-22T11:26:04.604Z,36.70
2019-05-22T11:28:33.658Z,51.90
2019-05-22T11:31:04.564Z,32.47
2019-05-22T11:33:34.610Z,39.13
2019-05-22T11:36:04.538Z,42.27
2019-05-22T11:38:33.668Z,41.43
2019-05-22T11:41:02.916Z,40.40
2019-05-22T11:43:32.070Z,34.13
2019-05-22T11:46:01.340Z,42.07
2019-05-22T11:48:30.361Z,32.60
2019-05-22T11:51:01.074Z,33.57
2019-05-22T11:53:30.199Z,44.57
2019-05-22T11:55:59.021Z,43.20
2019-05-22T11:58:28.306Z,35.53
2019-05-22T12:00:57.764Z,34.70
2019-05-22T12:03:26.968Z,36.90
2019-05-22T12:05:56.115Z,36.10
2019-05-22T12:08:25.560Z,31.83
2019-05-22T12:10:54.671Z,32.20
2019-05-22T12:13:24.942Z,31.53
2019-05-22T12:15:56.260Z,29.80
2019-05-22T12:18:25.940Z,29.77
2019-05-22T12:20:55.285Z,29.83
2019-05-22T12:23:24.263Z,33.90
2019-05-22T12:25:53.711Z,31.83
2019-05-22T12:28:23.156Z,36.07
2019-05-22T12:30:52.205Z,32.93
2019-05-22T12:33:21.159Z,34.37
2019-05-22T12:35:50.594Z,36.70
2019-05-22T12:38:21.882Z,39.03
2019-05-22T12:40:50.970Z,34.13
2019-05-22T12:43:21.160Z,33.80
2019-05-22T12:45:50.330Z,42.33
2019-05-22T12:48:19.840Z,34.57
2019-05-22T12:50:49.352Z,38.83
2019-05-22T12:53:19.680Z,34.20
2019-05-22T12:55:49.376Z,35.43
2019-05-22T12:58:19.369Z,34.87
2019-05-22T13:00:48.689Z,44.73
2019-05-22T13:03:18.785Z,33.80
2019-05-22T13:05:49.629Z,29.30
2019-05-22T13:08:19.221Z,29.83
2019-05-22T13:10:48.767Z,33.60
2019-05-22T13:13:17.860Z,31.67
2019-05-22T13:15:47.332Z,38.60
2019-05-22T13:18:20.336Z,36.30
2019-05-22T13:20:50.767Z,27.80
2019-05-22T13:23:22.727Z,28.13
2019-05-22T13:25:52.116Z,35.13
2019-05-22T13:28:21.827Z,26.73
2019-05-22T13:30:55.338Z,27.70
2019-05-22T13:33:29.305Z,26.73
2019-05-22T13:35:58.376Z,27.03
2019-05-22T13:38:28.278Z,27.00
2019-05-22T13:40:57.781Z,24.87
2019-05-22T13:43:28.706Z,26.43
2019-05-22T13:45:57.863Z,27.83
2019-05-22T13:48:27.234Z,28.63
2019-05-22T13:50:57.916Z,28.50
2019-05-22T13:53:27.566Z,29.07
2019-05-22T13:55:58.133Z,24.23
2019-05-22T13:58:27.856Z,23.37
2019-05-22T14:00:57.367Z,27.60
2019-05-22T14:03:27.220Z,27.47
2019-05-22T14:05:57.440Z,28.70
2019-05-22T14:08:26.815Z,26.80
2019-05-22T14:10:56.293Z,22.80
2019-05-22T14:13:27.947Z,27.93
2019-05-22T14:15:57.885Z,26.00
2019-05-22T14:18:27.209Z,24.37
2019-05-22T14:20:56.299Z,26.70
2019-05-22T14:23:25.555Z,25.73
2019-05-22T14:25:54.830Z,30.90
2019-05-22T14:28:25.383Z,25.70
2019-05-22T14:30:54.554Z,24.40
2019-05-22T14:33:27.759Z,22.30
2019-05-22T14:35:57.534Z,21.50
2019-05-22T14:38:27.255Z,23.87
2019-05-22T14:40:56.849Z,22.83
2019-05-22T14:43:26.112Z,27.10
2019-05-22T14:45:55.171Z,26.37
2019-05-22T14:48:24.474Z,24.67
2019-05-22T14:50:53.404Z,26.53
2019-05-22T14:53:22.164Z,30.10
2019-05-22T14:55:52.184Z,25.10
2019-05-22T14:58:21.423Z,27.43
2019-05-22T15:00:50.675Z,34.40
2019-05-22T15:03:20.724Z,33.37
2019-05-22T15:05:50.227Z,38.70
2019-05-22T15:08:19.044Z,29.00
2019-05-22T15:10:48.551Z,26.43
2019-05-22T15:13:17.611Z,35.63
2019-05-22T15:15:47.599Z,30.70
2019-05-22T15:18:17.715Z,33.50
2019-05-22T15:21:04.630Z,29.40
2019-05-22T15:23:34.859Z,32.60
2019-05-22T15:26:04.542Z,37.60
2019-05-22T15:28:34.121Z,34.47
2019-05-22T15:31:03.681Z,34.27
2019-05-22T15:33:33.991Z,32.30
2019-05-22T15:36:06.748Z,33.63
2019-05-22T15:38:38.701Z,45.60
2019-05-22T15:41:09.513Z,32.43
2019-05-22T15:43:38.990Z,34.60
2019-05-22T15:46:09.045Z,35.80
2019-05-22T15:48:39.672Z,23.87
2019-05-22T15:51:10.424Z,31.80
2019-05-22T15:53:40.389Z,25.80
2019-05-22T15:56:10.535Z,26.00
2019-05-22T15:58:43.710Z,33.53
2019-05-22T16:01:15.284Z,30.73
2019-05-22T16:03:46.740Z,24.00
2019-05-22T16:06:16.626Z,31.73
2019-05-22T16:08:47.072Z,29.73
2019-05-22T16:11:17.845Z,31.80
2019-05-22T16:13:48.917Z,31.53
2019-05-22T16:16:20.286Z,31.87
2019-05-22T16:18:51.970Z,29.70
2019-05-22T16:21:20.850Z,26.57
2019-05-22T16:23:50.375Z,35.30
2019-05-22T16:26:19.507Z,42.80
2019-05-22T16:28:49.173Z,30.07
2019-05-22T16:31:19.331Z,31.90
2019-05-22T16:33:48.770Z,23.40
2019-05-22T16:36:18.703Z,27.30
2019-05-22T16:38:49.714Z,29.60
2019-05-22T16:41:19.830Z,35.53
2019-05-22T16:43:50.545Z,41.13
2019-05-22T16:46:20.669Z,30.77
2019-05-22T16:48:49.803Z,36.10
2019-05-22T16:51:19.818Z,42.47
2019-05-22T16:53:55.889Z,40.37
2019-05-22T16:56:26.202Z,30.37
2019-05-22T16:58:56.037Z,40.13
2019-05-22T17:01:27.024Z,39.30
2019-05-22T17:03:59.560Z,32.90
2019-05-22T17:06:29.678Z,34.80
2019-05-22T17:08:59.205Z,34.43
2019-05-22T17:11:29.564Z,34.03
2019-05-22T17:14:03.536Z,34.50
2019-05-22T17:16:34.693Z,35.80
2019-05-22T17:19:25.232Z,30.90
2019-05-22T17:21:37.185Z,30.83
2019-05-22T17:24:08.958Z,31.83
2019-05-22T17:26:38.412Z,34.50
2019-05-22T17:29:07.564Z,39.43
2019-05-22T17:31:37.616Z,33.60
2019-05-22T17:34:10.983Z,35.63
2019-05-22T17:36:40.558Z,41.27
2019-05-22T17:39:11.503Z,38.13
2019-05-22T17:41:42.556Z,46.87
2019-05-22T17:44:13.131Z,29.67
2019-05-22T17:46:44.753Z,35.20
2019-05-22T17:49:15.800Z,41.97
2019-05-22T17:51:45.811Z,38.20
2019-05-22T17:54:15.312Z,47.67
2019-05-22T17:57:03.720Z,35.00
2019-05-22T17:59:32.559Z,42.33
2019-05-22T18:02:05.709Z,34.17
2019-05-22T18:04:34.992Z,35.77
2019-05-22T18:07:04.556Z,32.00
2019-05-22T18:09:35.286Z,37.50
2019-05-22T18:12:06.960Z,40.80
2019-05-22T18:14:36.811Z,41.47
2019-05-22T18:17:06.571Z,42.00
2019-05-22T18:19:35.791Z,33.67
2019-05-22T18:22:06.174Z,50.20
2019-05-22T18:24:35.422Z,42.40
2019-05-22T18:27:04.296Z,36.30
2019-05-22T18:29:33.429Z,33.60
2019-05-22T18:32:03.782Z,37.50
2019-05-22T18:34:33.215Z,35.07
2019-05-22T18:37:02.398Z,42.33
2019-05-22T18:39:31.299Z,33.43
2019-05-22T18:42:00.210Z,36.33
2019-05-22T18:44:29.363Z,39.33
2019-05-22T18:46:58.111Z,33.53
2019-05-22T18:49:27.054Z,32.43
2019-05-22T18:51:56.455Z,46.27
2019-05-22T18:54:25.640Z,39.50
2019-05-22T18:56:54.510Z,31.97
2019-05-22T18:59:23.350Z,42.30
2019-05-22T19:01:52.623Z,44.53
2019-05-22T19:04:21.725Z,38.17
2019-05-22T19:06:50.729Z,36.60
2019-05-22T19:09:20.049Z,35.30
2019-05-22T19:11:49.401Z,50.27
2019-05-22T19:14:18.211Z,43.50
2019-05-22T19:16:47.569Z,35.33
2019-05-22T19:19:16.839Z,37.93
2019-05-22T19:21:45.937Z,35.47
2019-05-22T19:24:14.787Z,36.00
2019-05-22T19:26:43.910Z,34.40
2019-05-22T19:29:12.927Z,36.17
2019-05-22T19:31:42.067Z,31.33
2019-05-22T19:34:12.194Z,31.30
2019-05-22T19:36:41.355Z,36.20
2019-05-22T19:39:10.640Z,34.03
2019-05-22T19:41:39.583Z,34.30
2019-05-22T19:44:09.188Z,38.37
2019-05-22T19:46:38.853Z,53.40
2019-05-22T19:49:08.164Z,41.97
2019-05-22T19:51:38.252Z,38.73
2019-05-22T19:54:07.811Z,33.50
2019-05-22T19:56:36.766Z,39.80
2019-05-22T19:59:06.557Z,35.13
2019-05-22T20:01:35.508Z,33.03
2019-05-22T20:04:04.546Z,36.80
2019-05-22T20:06:33.681Z,31.33
2019-05-22T20:09:03.204Z,28.03
2019-05-22T20:11:32.173Z,33.60
2019-05-22T20:14:01.754Z,35.87
2019-05-22T20:16:30.952Z,37.13
2019-05-22T20:19:00.167Z,42.50
2019-05-22T20:21:29.794Z,32.47
2019-05-22T20:23:59.057Z,41.00
2019-05-22T20:26:28.142Z,29.73
2019-05-22T20:28:57.400Z,31.30
2019-05-22T20:31:26.847Z,32.30
2019-05-22T20:33:56.003Z,30.70
2019-05-22T20:36:25.292Z,36.30
2019-05-22T20:38:54.690Z,33.90
2019-05-22T20:41:23.689Z,34.07
2019-05-22T20:43:53.094Z,42.37
2019-05-22T20:46:22.503Z,29.50
2019-05-22T20:48:51.263Z,34.17
2019-05-22T20:51:20.748Z,28.73
2019-05-22T20:53:54.715Z,40.80
2019-05-22T20:56:23.822Z,27.40
2019-05-22T20:58:53.280Z,31.80
2019-05-22T21:01:22.750Z,26.40
2019-05-22T21:03:51.651Z,31.93
2019-05-22T21:06:22.170Z,29.93
2019-05-22T21:08:50.960Z,38.57
2019-05-22T21:11:23.203Z,32.30
2019-05-22T21:13:52.598Z,36.83
2019-05-22T21:16:22.036Z,24.83
2019-05-22T21:18:52.398Z,26.13
2019-05-22T21:21:23.543Z,30.30
2019-05-22T21:23:53.017Z,27.83
2019-05-22T21:26:22.683Z,27.03
2019-05-22T21:28:52.252Z,31.70
2019-05-22T21:31:23.207Z,28.07
2019-05-22T21:33:52.729Z,25.70
2019-05-22T21:36:23.173Z,25.00
2019-05-22T21:38:52.339Z,26.87
2019-05-22T21:41:22.402Z,26.20
2019-05-22T21:43:52.142Z,31.80
2019-05-22T21:46:21.310Z,26.10
2019-05-22T21:48:53.312Z,25.57
2019-05-22T21:51:22.997Z,26.27
2019-05-22T21:53:52.115Z,27.37
2019-05-22T21:56:21.234Z,27.30
2019-05-22T21:58:50.660Z,27.17
2019-05-22T22:01:32.853Z,25.47
2019-05-22T22:04:09.645Z,28.17
2019-05-22T22:06:39.492Z,25.73
2019-05-22T22:09:08.952Z,26.13
2019-05-22T22:11:38.594Z,32.03
2019-05-22T22:14:08.896Z,26.43
2019-05-22T22:16:38.400Z,27.17
2019-05-22T22:19:07.415Z,47.73
2019-05-22T22:21:37.331Z,26.83
2019-05-22T22:24:06.815Z,28.03
2019-05-22T22:26:36.439Z,29.13
2019-05-22T22:29:05.801Z,27.53
2019-05-22T22:31:38.474Z,33.40
2019-05-22T22:34:19.580Z,26.97
2019-05-22T22:36:49.753Z,31.93
2019-05-22T22:39:21.491Z,25.93
2019-05-22T22:41:51.161Z,29.57
2019-05-22T22:44:21.287Z,32.70
2019-05-22T22:46:55.762Z,28.07
2019-05-22T22:49:28.031Z,28.93
2019-05-22T22:51:58.745Z,28.30
2019-05-22T22:54:29.160Z,28.07
2019-05-22T22:56:58.634Z,28.53
2019-05-22T22:59:28.421Z,26.47
2019-05-22T23:01:59.966Z,29.83
2019-05-22T23:04:30.751Z,27.97
2019-05-22T23:07:06.020Z,33.20
2019-05-22T23:09:36.885Z,31.83
2019-05-22T23:12:07.266Z,30.73
2019-05-22T23:14:37.531Z,27.90
2019-05-22T23:17:08.636Z,27.93
2019-05-22T23:19:45.844Z,29.27
2019-05-22T23:22:17.653Z,34.20
2019-05-22T23:24:46.932Z,33.20
2019-05-22T23:27:16.319Z,29.40
2019-05-22T23:29:46.472Z,28.57
2019-05-22T23:32:17.744Z,26.33
2019-05-22T23:34:48.060Z,34.40
2019-05-22T23:37:19.003Z,28.47
2019-05-22T23:39:48.171Z,26.10
2019-05-22T23:42:21.066Z,26.70
2019-05-22T23:44:53.880Z,29.93
2019-05-22T23:47:24.276Z,25.70
2019-05-22T23:49:54.153Z,26.80
2019-05-22T23:52:24.144Z,28.07
2019-05-22T23:54:53.690Z,26.50
2019-05-22T23:57:24.193Z,38.03
